Main page
METAR-TAF:

METAR-TAF

Airports :

Rio Branco International Airport

Rio Branco, Acre, Brazil

latitude: 10-00S, longitude: 067-48W, elevation: 142 m

Current weather observation

The report was made 48 minutes ago, at 15:00 UTC
Wind 8 kt from the North/Northeast
Temperature 29°C
Humidity 74%
Pressure 1013 hPa
Visibility 10 km or more
Scattered clouds at a height of 2000 ft
Scattered clouds at a height of 10000 ft

METAR: SBRB 211500Z 02008KT 9999 SCT020 SCT100 29/24 Q1013

Time: 10:48 (15:48 UTC)

Forecast

The report was made 6 hours and 21 minutes ago, at 09:27 UTC
Forecast valid from 21 at 12 UTC to 21 at 24 UTC
Wind 7 kt from the North
Visibility 10 km or more
Scattered clouds at a height of 1000 ft
Becoming
from 21 at 16 UTC to 21 at 18 UTC
Scattered clouds at a height of 2500 ft
Few clouds at a height of 3000 ft, Towering cumulus.

TAF: SBRB 210927Z 2112/2124 35007KT 9999 SCT010 TN25/2112Z TX30/2118Z BECMG 2116/2118 SCT025 FEW030TCU RMK PHQ

Weather observations and forecasts of more than 4000 airports (METAR and TAF reports).

The available stations are represented by yellow and red dots on the map.

Hover mouse over dot to see the name of the station.

Then click to see weather observations and forecasts.

To change the map : click on the green buttons with a black cross to zoom in, on the green button with a dash to zoom out, or on the green arrows for adjacent maps.


METAR-TAF: